createdAt,value
2023-05-03T00:02:25.472Z,11.33
2023-05-03T00:04:54.373Z,11.31
2023-05-03T00:07:22.980Z,11.34
2023-05-03T00:09:52.554Z,11.36
2023-05-03T00:12:20.145Z,11.35
2023-05-03T00:14:47.068Z,11.37
2023-05-03T00:17:14.423Z,11.38
2023-05-03T00:19:42.708Z,11.41
2023-05-03T00:22:09.842Z,11.43
2023-05-03T00:24:36.705Z,11.40
2023-05-03T00:27:04.284Z,11.43
2023-05-03T00:29:31.155Z,11.41
2023-05-03T00:32:02.209Z,11.42
2023-05-03T00:34:31.317Z,11.42
2023-05-03T00:36:58.420Z,11.40
2023-05-03T00:39:25.263Z,11.38
2023-05-03T00:41:56.516Z,11.38
2023-05-03T00:44:23.465Z,11.37
2023-05-03T00:46:51.205Z,11.34
2023-05-03T00:49:18.284Z,11.34
2023-05-03T00:51:45.490Z,11.35
2023-05-03T00:54:15.260Z,11.35
2023-05-03T00:56:51.102Z,11.35
2023-05-03T00:59:19.027Z,11.33
2023-05-03T01:01:48.500Z,11.32
2023-05-03T01:04:16.171Z,11.31
2023-05-03T01:06:46.613Z,11.31
2023-05-03T01:09:17.399Z,11.30
2023-05-03T01:11:44.528Z,11.26
2023-05-03T01:14:17.155Z,11.30
2023-05-03T01:16:49.885Z,11.31
2023-05-03T01:19:28.618Z,11.30
2023-05-03T01:21:59.693Z,11.27
2023-05-03T01:24:28.203Z,11.27
2023-05-03T01:26:55.343Z,11.26
2023-05-03T01:29:22.223Z,11.25
2023-05-03T01:32:12.288Z,11.26
2023-05-03T01:34:42.135Z,11.30
2023-05-03T01:37:11.110Z,11.32
2023-05-03T01:39:44.407Z,11.31
2023-05-03T01:42:12.495Z,11.30
2023-05-03T01:44:40.753Z,11.30
2023-05-03T01:47:08.891Z,11.28
2023-05-03T01:49:35.892Z,11.29
2023-05-03T01:52:03.127Z,11.30
2023-05-03T01:54:30.068Z,11.29
2023-05-03T01:57:00.509Z,11.29
2023-05-03T01:59:29.799Z,11.34
2023-05-03T02:01:57.173Z,11.32
2023-05-03T02:04:24.087Z,11.34
2023-05-03T02:06:55.386Z,11.34
2023-05-03T02:09:22.620Z,11.38
2023-05-03T02:11:50.067Z,11.37
2023-05-03T02:14:17.382Z,11.37
2023-05-03T02:16:44.722Z,11.42
2023-05-03T02:19:11.578Z,11.42
2023-05-03T02:21:39.055Z,11.43
2023-05-03T02:24:06.101Z,11.40
2023-05-03T02:26:33.387Z,11.38
2023-05-03T02:29:00.268Z,11.39
2023-05-03T02:31:30.691Z,11.36
2023-05-03T02:33:58.206Z,11.33
2023-05-03T02:36:25.484Z,11.34
2023-05-03T02:38:53.430Z,11.34
2023-05-03T02:41:23.657Z,11.38
2023-05-03T02:43:51.214Z,11.37
2023-05-03T02:46:18.714Z,11.41
2023-05-03T02:48:45.642Z,11.38
2023-05-03T02:51:12.893Z,11.40
2023-05-03T02:53:42.427Z,11.40
2023-05-03T02:56:12.149Z,11.41
2023-05-03T02:58:39.084Z,11.43
2023-05-03T03:01:06.370Z,11.44
2023-05-03T03:03:33.302Z,11.44
2023-05-03T03:06:00.698Z,11.39
2023-05-03T03:08:30.861Z,11.38
2023-05-03T03:11:01.698Z,11.40
2023-05-03T03:13:29.180Z,11.38
2023-05-03T03:15:56.467Z,11.38
2023-05-03T03:18:23.278Z,11.37
2023-05-03T03:20:51.121Z,11.38
2023-05-03T03:23:22.613Z,11.39
2023-05-03T03:25:50.038Z,11.41
2023-05-03T03:28:17.647Z,11.43
2023-05-03T03:30:48.194Z,11.39
2023-05-03T03:33:24.247Z,11.38
2023-05-03T03:35:54.062Z,11.33
2023-05-03T03:38:24.390Z,11.33
2023-05-03T03:40:58.430Z,11.37
2023-05-03T03:43:26.500Z,11.35
2023-05-03T03:45:54.165Z,11.38
2023-05-03T03:48:21.303Z,11.35
2023-05-03T03:50:49.457Z,11.36
2023-05-03T03:53:17.545Z,11.34
2023-05-03T03:55:45.098Z,11.33
2023-05-03T03:58:15.955Z,11.31
2023-05-03T04:00:43.853Z,11.29
2023-05-03T04:03:15.647Z,11.27
2023-05-03T04:05:46.020Z,11.25
2023-05-03T04:08:14.866Z,11.24
2023-05-03T04:10:43.095Z,11.26
2023-05-03T04:13:10.851Z,11.33
2023-05-03T04:15:38.408Z,11.36
2023-05-03T04:18:06.095Z,11.45
2023-05-03T04:20:38.816Z,11.51
2023-05-03T04:23:07.487Z,11.57
2023-05-03T04:25:37.116Z,11.62
2023-05-03T04:28:10.290Z,11.66
2023-05-03T04:30:44.600Z,11.69
2023-05-03T04:33:13.952Z,11.73
2023-05-03T04:35:42.248Z,11.81
2023-05-03T04:38:12.986Z,11.86
2023-05-03T04:40:41.188Z,11.88
2023-05-03T04:43:10.112Z,11.92
2023-05-03T04:45:41.885Z,12.01
2023-05-03T04:48:13.320Z,12.03
2023-05-03T04:50:41.681Z,12.16
2023-05-03T04:53:10.937Z,12.24
2023-05-03T04:55:42.350Z,12.31
2023-05-03T04:58:10.220Z,12.36
2023-05-03T05:00:38.645Z,12.40
2023-05-03T05:03:12.010Z,12.48
2023-05-03T05:05:42.239Z,12.44
2023-05-03T05:08:12.134Z,12.36
2023-05-03T05:10:44.652Z,12.52
2023-05-03T05:13:18.730Z,12.59
2023-05-03T05:15:48.579Z,12.66
2023-05-03T05:18:15.781Z,12.72
2023-05-03T05:20:44.732Z,12.93
2023-05-03T05:23:14.896Z,13.00
2023-05-03T05:25:46.083Z,12.99
2023-05-03T05:28:13.242Z,13.12
2023-05-03T05:30:41.743Z,13.39
2023-05-03T05:33:08.633Z,13.46
2023-05-03T05:35:36.156Z,13.30
2023-05-03T05:38:04.615Z,13.28
2023-05-03T05:40:33.200Z,13.29
2023-05-03T05:43:01.133Z,13.37
2023-05-03T05:45:34.577Z,13.36
2023-05-03T05:48:02.528Z,13.38
2023-05-03T05:50:31.817Z,13.41
2023-05-03T05:53:03.114Z,13.62
2023-05-03T05:55:36.036Z,13.60
2023-05-03T05:58:05.556Z,13.65
2023-05-03T06:00:39.690Z,13.84
2023-05-03T06:03:07.136Z,13.88
2023-05-03T06:05:35.174Z,13.95
2023-05-03T06:08:02.389Z,14.18
2023-05-03T06:10:29.524Z,14.22
2023-05-03T06:12:57.957Z,14.43
2023-05-03T06:15:26.937Z,14.73
2023-05-03T06:17:53.929Z,14.95
2023-05-03T06:20:21.316Z,15.63
2023-05-03T06:22:50.260Z,15.84
2023-05-03T06:25:18.257Z,16.11
2023-05-03T06:27:48.765Z,16.22
2023-05-03T06:30:17.861Z,17.09
2023-05-03T06:32:47.689Z,17.55
2023-05-03T06:35:15.775Z,17.08
2023-05-03T06:37:43.852Z,16.58
2023-05-03T06:40:11.376Z,17.18
2023-05-03T06:42:38.257Z,17.65
2023-05-03T06:45:09.548Z,17.78
2023-05-03T06:47:40.279Z,18.06
2023-05-03T06:50:08.126Z,17.79
2023-05-03T06:52:35.034Z,17.09
2023-05-03T06:55:02.522Z,16.89
2023-05-03T06:57:29.390Z,17.40
2023-05-03T06:59:59.024Z,17.26
2023-05-03T07:02:27.062Z,18.06
2023-05-03T07:04:54.561Z,18.42
2023-05-03T07:07:21.626Z,19.01
2023-05-03T07:09:49.403Z,19.63
2023-05-03T07:12:16.584Z,18.87
2023-05-03T07:14:43.840Z,19.80
2023-05-03T07:17:13.174Z,19.61
2023-05-03T07:19:40.426Z,20.32
2023-05-03T07:22:07.473Z,20.61
2023-05-03T07:24:37.084Z,21.19
2023-05-03T07:27:04.141Z,19.80
2023-05-03T07:29:31.489Z,18.44
2023-05-03T07:31:59.225Z,19.21
2023-05-03T07:34:29.308Z,20.54
2023-05-03T07:36:56.464Z,21.54
2023-05-03T07:39:23.824Z,21.27
2023-05-03T07:41:50.988Z,21.40
2023-05-03T07:44:18.223Z,22.34
2023-05-03T07:46:45.183Z,22.15
2023-05-03T07:49:12.427Z,20.51
2023-05-03T07:51:42.687Z,19.23
2023-05-03T07:54:09.963Z,20.56
2023-05-03T07:56:37.902Z,20.80
2023-05-03T07:59:09.997Z,21.12
2023-05-03T08:01:37.831Z,21.60
2023-05-03T08:04:05.900Z,21.62
2023-05-03T08:06:35.948Z,21.93
2023-05-03T08:09:04.816Z,22.23
2023-05-03T08:11:31.958Z,22.50
2023-05-03T08:13:59.346Z,23.52
2023-05-03T08:16:27.109Z,24.11
2023-05-03T08:18:55.168Z,24.28
2023-05-03T08:21:24.838Z,23.47
2023-05-03T08:23:52.117Z,23.02
2023-05-03T08:26:19.033Z,22.65
2023-05-03T08:28:46.526Z,22.05
2023-05-03T08:31:14.117Z,21.77
2023-05-03T08:33:41.362Z,22.67
2023-05-03T08:36:10.985Z,22.72
2023-05-03T08:38:43.295Z,23.44
2023-05-03T08:41:30.482Z,23.90
2023-05-03T08:43:58.826Z,24.12
2023-05-03T08:46:28.742Z,23.30
2023-05-03T08:48:59.022Z,21.52
2023-05-03T08:51:27.841Z,19.88
2023-05-03T08:53:55.081Z,19.79
2023-05-03T08:56:28.196Z,20.42
2023-05-03T08:58:55.512Z,21.67
2023-05-03T09:01:24.911Z,20.66
2023-05-03T09:03:52.580Z,19.76
2023-05-03T09:06:20.929Z,21.60
2023-05-03T09:08:48.190Z,20.93
2023-05-03T09:11:22.989Z,21.27
2023-05-03T09:13:51.705Z,22.29
2023-05-03T09:16:28.721Z,23.75
2023-05-03T09:18:59.828Z,23.21
2023-05-03T09:21:28.681Z,22.65
2023-05-03T09:23:56.076Z,23.10
2023-05-03T09:26:29.066Z,23.96
2023-05-03T09:28:57.752Z,23.33
2023-05-03T09:31:27.971Z,23.71
2023-05-03T09:33:55.679Z,21.88
2023-05-03T09:36:22.888Z,20.83
2023-05-03T09:38:51.007Z,21.47
2023-05-03T09:41:29.422Z,22.89
2023-05-03T09:43:58.787Z,23.18
2023-05-03T09:46:26.627Z,24.33
2023-05-03T09:48:57.318Z,25.51
2023-05-03T09:51:29.144Z,25.46
2023-05-03T09:53:56.680Z,23.25
2023-05-03T09:56:27.593Z,21.53
2023-05-03T09:58:55.069Z,21.64
2023-05-03T10:01:26.847Z,21.91
2023-05-03T10:03:57.582Z,23.53
2023-05-03T10:06:24.926Z,22.38
2023-05-03T10:09:05.770Z,22.26
2023-05-03T10:11:34.592Z,21.71
2023-05-03T10:14:02.046Z,21.40
2023-05-03T10:16:34.279Z,21.58
2023-05-03T10:19:07.220Z,22.28
2023-05-03T10:21:57.549Z,20.84
2023-05-03T10:24:27.357Z,21.09
2023-05-03T10:26:55.843Z,20.86
2023-05-03T10:29:36.119Z,19.77
2023-05-03T10:32:06.138Z,19.27
2023-05-03T10:34:34.067Z,19.04
2023-05-03T10:37:09.644Z,19.00
2023-05-03T10:39:37.232Z,19.32
2023-05-03T10:42:08.953Z,19.32
2023-05-03T10:44:41.189Z,20.15
2023-05-03T10:47:15.002Z,21.16
2023-05-03T10:49:42.486Z,21.92
2023-05-03T10:52:28.119Z,22.51
2023-05-03T10:54:57.685Z,22.69
2023-05-03T10:57:27.570Z,23.27
2023-05-03T10:59:57.628Z,22.99
2023-05-03T11:02:32.794Z,21.60
2023-05-03T11:05:04.467Z,22.76
2023-05-03T11:07:31.912Z,23.04
2023-05-03T11:09:59.147Z,22.27
2023-05-03T11:12:26.201Z,21.13
2023-05-03T11:14:53.662Z,20.45
2023-05-03T11:17:21.868Z,19.84
2023-05-03T11:19:49.963Z,19.70
2023-05-03T11:22:16.876Z,19.07
2023-05-03T11:24:44.340Z,18.99
2023-05-03T11:27:15.803Z,18.70
2023-05-03T11:29:51.234Z,18.68
2023-05-03T11:32:21.545Z,18.54
2023-05-03T11:34:51.478Z,18.45
2023-05-03T11:37:18.608Z,18.40
2023-05-03T11:39:47.842Z,18.28
2023-05-03T11:42:17.377Z,18.29
2023-05-03T11:44:45.253Z,18.23
2023-05-03T11:47:12.257Z,18.11
2023-05-03T11:49:51.265Z,17.97
2023-05-03T11:52:22.490Z,18.14
2023-05-03T11:54:49.897Z,17.97
2023-05-03T11:57:16.970Z,18.00
2023-05-03T11:59:44.879Z,17.85
2023-05-03T12:02:13.270Z,17.86
2023-05-03T12:04:43.259Z,17.91
2023-05-03T12:07:15.105Z,17.92
2023-05-03T12:09:52.875Z,17.79
2023-05-03T12:12:31.575Z,17.72
2023-05-03T12:15:04.218Z,17.65
2023-05-03T12:17:39.646Z,17.55
2023-05-03T12:22:51.987Z,17.27
2023-05-03T12:25:20.942Z,17.28
2023-05-03T12:28:07.350Z,17.18
2023-05-03T12:30:40.659Z,16.93
2023-05-03T12:33:10.005Z,16.75
2023-05-03T12:35:41.345Z,16.66
2023-05-03T12:38:09.671Z,16.53
2023-05-03T12:40:39.416Z,16.53
2023-05-03T12:43:07.146Z,16.48
2023-05-03T12:45:40.230Z,16.44
2023-05-03T12:48:11.211Z,16.43
2023-05-03T12:50:44.930Z,16.41
2023-05-03T12:53:16.641Z,16.32
2023-05-03T12:55:51.415Z,16.30
2023-05-03T13:01:37.044Z,16.27
2023-05-03T13:03:43.523Z,16.25
2023-05-03T13:06:14.088Z,16.13
2023-05-03T13:11:12.909Z,16.08
2023-05-03T13:13:40.213Z,16.04
2023-05-03T13:16:07.986Z,16.10
2023-05-03T13:18:39.021Z,16.07
2023-05-03T13:21:08.058Z,16.03
2023-05-03T13:23:34.912Z,16.10
2023-05-03T13:26:02.134Z,16.01
2023-05-03T13:28:29.007Z,15.96
2023-05-03T13:30:58.781Z,15.98
2023-05-03T13:33:28.761Z,16.01
2023-05-03T13:35:56.741Z,15.97
2023-05-03T13:38:23.768Z,15.95
2023-05-03T13:40:51.087Z,16.01
2023-05-03T13:43:18.016Z,16.01
2023-05-03T13:45:45.171Z,16.05
2023-05-03T13:48:18.745Z,16.12
2023-05-03T13:50:46.473Z,16.17
2023-05-03T13:53:13.409Z,16.22
2023-05-03T13:55:41.116Z,16.20
2023-05-03T13:58:08.687Z,16.32
2023-05-03T14:00:36.204Z,16.41
2023-05-03T14:03:04.334Z,16.50
2023-05-03T14:05:31.907Z,16.60
2023-05-03T14:07:59.533Z,16.67
2023-05-03T14:10:27.025Z,16.74
2023-05-03T14:12:58.042Z,16.80
2023-05-03T14:15:27.980Z,16.95
2023-05-03T14:17:59.280Z,17.01
2023-05-03T14:20:30.381Z,16.95
2023-05-03T14:22:57.393Z,17.04
2023-05-03T14:25:26.103Z,17.07
2023-05-03T14:27:52.973Z,17.15
2023-05-03T14:30:20.497Z,17.24
2023-05-03T14:32:47.885Z,17.12
2023-05-03T14:35:15.640Z,17.09
2023-05-03T14:37:42.625Z,17.03
2023-05-03T14:40:10.092Z,17.13
2023-05-03T14:42:37.036Z,17.13
2023-05-03T14:45:05.602Z,17.06
2023-05-03T14:47:32.837Z,17.01
2023-05-03T14:50:01.216Z,17.01
2023-05-03T14:52:28.499Z,17.04
2023-05-03T14:54:55.790Z,17.03
2023-05-03T14:57:22.648Z,17.03
2023-05-03T14:59:52.571Z,17.07
2023-05-03T15:02:19.583Z,17.11
2023-05-03T15:04:50.414Z,17.18
2023-05-03T15:07:17.298Z,17.11
2023-05-03T15:09:44.919Z,17.17
2023-05-03T15:12:11.997Z,17.22
2023-05-03T15:14:39.481Z,17.18
2023-05-03T15:17:08.945Z,17.05
2023-05-03T15:19:36.446Z,16.97
2023-05-03T15:22:05.870Z,16.95
2023-05-03T15:24:33.071Z,16.93
2023-05-03T15:27:00.857Z,16.81
2023-05-03T15:29:28.150Z,16.83
2023-05-03T15:31:54.992Z,16.76
2023-05-03T15:34:24.871Z,16.67
2023-05-03T15:36:54.425Z,16.67
2023-05-03T15:39:22.709Z,16.59
2023-05-03T15:41:49.557Z,16.53
2023-05-03T15:44:16.898Z,16.59
2023-05-03T15:46:44.420Z,16.57
2023-05-03T15:49:12.117Z,16.54
2023-05-03T15:51:39.398Z,16.53
2023-05-03T15:54:07.206Z,16.65
2023-05-03T15:56:34.130Z,16.63
2023-05-03T15:59:01.489Z,16.49
2023-05-03T16:01:28.564Z,16.54
2023-05-03T16:03:56.211Z,16.37
2023-05-03T16:06:23.188Z,16.34
2023-05-03T16:08:50.953Z,16.38
2023-05-03T16:11:17.865Z,16.34
2023-05-03T16:13:45.125Z,16.35
2023-05-03T16:16:12.459Z,16.19
2023-05-03T16:18:39.778Z,16.13
2023-05-03T16:21:14.563Z,16.12
2023-05-03T16:23:41.742Z,16.07
2023-05-03T16:26:15.145Z,16.01
2023-05-03T16:28:42.474Z,15.95
2023-05-03T16:31:09.423Z,15.86
2023-05-03T16:33:36.788Z,15.76
2023-05-03T16:36:05.988Z,15.66
2023-05-03T16:38:33.380Z,15.58
2023-05-03T16:41:00.532Z,15.53
2023-05-03T16:43:27.760Z,15.45
2023-05-03T16:46:06.229Z,15.43
2023-05-03T16:48:34.644Z,15.38
2023-05-03T16:51:03.699Z,15.34
2023-05-03T16:53:31.479Z,15.29
2023-05-03T16:55:58.498Z,15.21
2023-05-03T16:58:25.763Z,15.20
2023-05-03T17:00:53.609Z,15.12
2023-05-03T17:03:21.264Z,15.11
2023-05-03T17:05:48.142Z,15.05
2023-05-03T17:08:15.467Z,14.91
2023-05-03T17:10:45.325Z,14.82
2023-05-03T17:13:12.939Z,14.75
2023-05-03T17:15:40.256Z,14.68
2023-05-03T17:18:08.656Z,14.61
2023-05-03T17:20:35.687Z,14.55
2023-05-03T17:23:02.938Z,14.44
2023-05-03T17:25:29.845Z,14.40
2023-05-03T17:27:57.062Z,14.34
2023-05-03T17:30:24.142Z,14.31
2023-05-03T17:32:51.397Z,14.21
2023-05-03T17:35:18.588Z,14.12
2023-05-03T17:37:48.260Z,14.04
2023-05-03T17:40:15.366Z,13.96
2023-05-03T17:42:44.895Z,13.92
2023-05-03T17:45:12.059Z,13.83
2023-05-03T17:47:39.544Z,13.70
2023-05-03T17:50:09.619Z,13.60
2023-05-03T17:52:39.994Z,13.52
2023-05-03T17:55:07.004Z,13.45
2023-05-03T17:57:37.473Z,13.30
2023-05-03T18:00:07.068Z,13.18
2023-05-03T18:02:34.520Z,13.11
2023-05-03T18:05:03.002Z,12.98
2023-05-03T18:07:30.177Z,12.92
2023-05-03T18:09:57.541Z,12.85
2023-05-03T18:12:25.783Z,12.77
2023-05-03T18:14:59.407Z,12.71
2023-05-03T18:17:27.412Z,12.64
2023-05-03T18:19:55.736Z,12.59
2023-05-03T18:22:23.438Z,12.52
2023-05-03T18:25:02.029Z,12.45
2023-05-03T18:27:29.397Z,12.42
2023-05-03T18:29:56.401Z,12.30
2023-05-03T18:32:25.330Z,12.27
2023-05-03T18:34:53.138Z,12.14
2023-05-03T18:37:24.492Z,12.05
2023-05-03T18:39:54.476Z,12.04
2023-05-03T18:42:22.933Z,11.97
2023-05-03T18:44:50.074Z,11.90
2023-05-03T18:47:21.772Z,11.75
2023-05-03T18:49:53.322Z,11.72
2023-05-03T18:52:24.741Z,11.73
2023-05-03T18:54:52.906Z,11.76
2023-05-03T18:57:21.039Z,11.68
2023-05-03T18:59:59.391Z,11.61
2023-05-03T19:02:31.469Z,11.56
2023-05-03T19:05:00.455Z,11.49
2023-05-03T19:07:32.391Z,11.44
2023-05-03T19:10:04.636Z,11.45
2023-05-03T19:12:33.752Z,11.33
2023-05-03T19:15:03.438Z,11.28
2023-05-03T19:17:31.581Z,11.17
2023-05-03T19:19:59.690Z,11.08
2023-05-03T19:22:29.975Z,11.02
2023-05-03T19:24:59.440Z,10.95
2023-05-03T19:27:27.793Z,10.86
2023-05-03T19:29:56.962Z,10.75
2023-05-03T19:32:26.910Z,10.75
2023-05-03T19:34:54.233Z,10.68
2023-05-03T19:37:22.165Z,10.58
2023-05-03T19:39:49.564Z,10.61
2023-05-03T19:42:17.980Z,10.52
2023-05-03T19:44:45.516Z,10.45
2023-05-03T19:47:13.647Z,10.42
2023-05-03T19:49:42.630Z,10.38
2023-05-03T19:52:10.872Z,10.34
2023-05-03T19:54:38.337Z,10.31
2023-05-03T19:57:06.570Z,10.27
2023-05-03T19:59:34.992Z,10.27
2023-05-03T20:02:02.742Z,10.21
2023-05-03T20:04:30.579Z,10.12
2023-05-03T20:06:58.452Z,10.05
2023-05-03T20:09:26.785Z,10.05
2023-05-03T20:11:58.934Z,10.20
2023-05-03T20:14:29.760Z,10.18
2023-05-03T20:16:57.803Z,10.23
2023-05-03T20:19:25.785Z,10.25
2023-05-03T20:21:53.631Z,10.24
2023-05-03T20:24:21.139Z,10.26
2023-05-03T20:26:48.412Z,10.49
2023-05-03T20:29:15.681Z,10.63
2023-05-03T20:31:42.845Z,10.74
2023-05-03T20:34:13.469Z,10.80
2023-05-03T20:36:40.872Z,10.83
2023-05-03T20:39:09.491Z,10.78
2023-05-03T20:41:39.102Z,10.74
2023-05-03T20:44:06.119Z,10.67
2023-05-03T20:46:37.169Z,10.58
2023-05-03T20:49:05.764Z,10.45
2023-05-03T20:51:34.550Z,10.31
2023-05-03T20:54:03.458Z,10.16
2023-05-03T20:56:31.905Z,10.04
2023-05-03T20:58:58.996Z,9.93
2023-05-03T21:01:26.313Z,9.84
2023-05-03T21:03:55.430Z,9.73
2023-05-03T21:06:22.842Z,9.61
2023-05-03T21:08:49.700Z,9.54
2023-05-03T21:11:17.102Z,9.41
2023-05-03T21:13:43.952Z,9.38
2023-05-03T21:16:11.229Z,9.32
2023-05-03T21:18:38.107Z,9.24
2023-05-03T21:21:05.355Z,9.16
2023-05-03T21:23:32.379Z,9.09
2023-05-03T21:25:59.484Z,9.07
2023-05-03T21:28:26.484Z,8.94
2023-05-03T21:30:54.391Z,8.91
2023-05-03T21:33:21.593Z,8.91
2023-05-03T21:35:51.799Z,8.92
2023-05-03T21:38:18.721Z,8.75
2023-05-03T21:40:47.223Z,8.62
2023-05-03T21:43:14.417Z,8.62
2023-05-03T21:45:43.187Z,8.54
2023-05-03T21:48:10.288Z,8.45
2023-05-03T21:50:43.619Z,8.49
2023-05-03T21:53:10.572Z,8.58
2023-05-03T21:55:40.196Z,8.62
2023-05-03T21:58:07.134Z,8.67
2023-05-03T22:00:36.109Z,8.65
2023-05-03T22:03:03.387Z,8.60
2023-05-03T22:05:31.032Z,8.59
2023-05-03T22:07:57.964Z,8.50
2023-05-03T22:10:25.375Z,8.50
2023-05-03T22:12:52.232Z,8.53
2023-05-03T22:15:19.937Z,8.50
2023-05-03T22:17:46.834Z,8.46
2023-05-03T22:20:14.075Z,8.42
2023-05-03T22:22:43.631Z,8.39
2023-05-03T22:25:21.617Z,8.35
2023-05-03T22:27:48.454Z,8.30
2023-05-03T22:30:15.923Z,8.26
2023-05-03T22:32:43.196Z,8.23
2023-05-03T22:35:10.608Z,8.28
2023-05-03T22:37:37.910Z,8.27
2023-05-03T22:40:05.910Z,8.27
2023-05-03T22:42:33.299Z,8.28
2023-05-03T22:45:00.864Z,8.32
2023-05-03T22:47:27.771Z,8.34
2023-05-03T22:49:55.001Z,8.38
2023-05-03T22:52:24.651Z,8.44
2023-05-03T22:54:56.128Z,8.45
2023-05-03T22:57:25.257Z,8.48
2023-05-03T22:59:52.387Z,8.48
2023-05-03T23:02:19.313Z,8.55
2023-05-03T23:04:46.619Z,8.57
2023-05-03T23:07:13.498Z,8.57
2023-05-03T23:09:40.761Z,8.63
2023-05-03T23:12:07.590Z,8.64
2023-05-03T23:14:34.967Z,8.63
2023-05-03T23:17:04.546Z,8.69
2023-05-03T23:19:34.383Z,8.70
2023-05-03T23:22:01.412Z,8.75
2023-05-03T23:24:30.969Z,8.85
2023-05-03T23:26:57.977Z,8.85
2023-05-03T23:29:27.986Z,8.92
2023-05-03T23:31:55.480Z,8.97
2023-05-03T23:34:23.258Z,9.02
2023-05-03T23:36:50.266Z,9.09
2023-05-03T23:39:17.546Z,9.12
2023-05-03T23:41:44.456Z,9.19
2023-05-03T23:44:11.782Z,9.21
2023-05-03T23:46:39.649Z,9.23
2023-05-03T23:49:07.704Z,9.23
2023-05-03T23:51:34.946Z,9.25
2023-05-03T23:54:02.264Z,9.27
2023-05-03T23:56:29.193Z,9.36
2023-05-03T23:58:56.869Z,9.43
